Airfield :







YOU CAN JOIN US ON...

 
LOGIN :

Register | Disclaimer

   EN    FR    IT 

 









Legend :    VFR   Marginal VFR   IFR   Intensive IFR   Very Intensive IFR
Visi :
Ceiling :
>= 8 km
>= 3000ft
5 to 8 km
1000 to 3000 ft
1500m to 5 km
500 to 1000 ft
800 to 1500m
200 to 500 ft
< 800m
< 200 ft
Symbols :   Thunderstorms  Fog  Heavy snow  Heavy precipitations  Wind > 20 kt







- Airport Elevation : 232 ft
- IATA code : YQM


CYQM - Greater Moncton International

CURRENT METAR :
  • 191800Z 15010KT 15SM SCT025TCU BKN038 BKN250 26/20 A2992 RMK TCU4SC1CI1 CI TR SLP133 DENSITY ALT 1600FT

EXPIRED METARs :
  • 191700Z 19007KT 140V210 15SM SCT025TCU BKN038 BKN240 26/21 A2995 RMK TCU4SC1CI1 CI TR SLP142 DENSITY ALT 1600FT
  • 191600Z 17008KT 15SM BKN019TCU BKN042 25/20 A2996 RMK TCU5SC1 SC TR SLP146 DENSITY ALT 1500FT

TAF TAF CYQM
Valid from the 19 at 18:00 until the 20 at 18:00 UTC


191738Z 1918/2018 19008KT P6SM FEW015 BKN040
TEMPO 1918/2004 BKN015 BKN040
FM200400 22010G20KT P6SM SCT015 BKN050
BECMG 2011/2013 27010KT
FM201400 27012KT P6SM BKN030
BECMG 2016/2018 SCT030 RMK NXT FCST BY 200000Z
No reported NOTAMs for that airfield.



MET'MAP, your aeronautical weather chart ! - Copyright ORBIFLY December 2007 - Disclaimer

ORBIFLY MET'MAP TEAM :

Programming & Development : Alexandra Zaïnal
Concept & Development : Baudouin d'Aumeries
Co-Development & Prog : Marc-Olivier Méhu
Technical & hardware support : Manuel Goepfert

Contact : metmap@orbifly.com




SOURCES & CREDITS :

   NOAA